createdAt,value
2018-11-27T00:00:45.116Z,5.33
2018-11-27T00:03:12.087Z,4.57
2018-11-27T00:05:38.907Z,4.77
2018-11-27T00:08:05.742Z,4.03
2018-11-27T00:10:32.569Z,4.87
2018-11-27T00:12:59.457Z,5.37
2018-11-27T00:15:26.288Z,4.40
2018-11-27T00:17:53.115Z,4.60
2018-11-27T00:20:19.945Z,4.30
2018-11-27T00:22:46.829Z,5.10
2018-11-27T00:25:13.655Z,4.90
2018-11-27T00:27:40.482Z,4.23
2018-11-27T00:30:07.316Z,4.50
2018-11-27T00:32:34.202Z,5.87
2018-11-27T00:35:01.035Z,4.83
2018-11-27T00:37:27.863Z,5.87
2018-11-27T00:39:54.680Z,5.33
2018-11-27T00:42:21.569Z,4.63
2018-11-27T00:44:48.398Z,6.53
2018-11-27T00:47:15.525Z,4.70
2018-11-27T00:49:42.345Z,3.87
2018-11-27T00:52:09.389Z,4.53
2018-11-27T00:54:37.212Z,4.63
2018-11-27T00:57:04.050Z,4.40
2018-11-27T00:59:30.883Z,4.20
2018-11-27T01:01:57.748Z,4.43
2018-11-27T01:04:24.571Z,4.40
2018-11-27T01:06:51.394Z,4.10
2018-11-27T01:09:18.277Z,5.00
2018-11-27T01:11:45.118Z,4.33
2018-11-27T01:14:11.945Z,5.60
2018-11-27T01:16:38.775Z,5.10
2018-11-27T01:19:05.610Z,5.43
2018-11-27T01:21:32.525Z,4.57
2018-11-27T01:23:59.373Z,4.37
2018-11-27T01:26:26.208Z,5.10
2018-11-27T01:28:53.031Z,4.43
2018-11-27T01:31:20.070Z,5.70
2018-11-27T01:33:46.883Z,5.90
2018-11-27T01:36:13.704Z,4.50
2018-11-27T01:38:40.543Z,4.17
2018-11-27T01:41:07.357Z,4.47
2018-11-27T01:43:34.202Z,4.43
2018-11-27T01:46:01.026Z,4.50
2018-11-27T01:48:27.858Z,4.30
2018-11-27T01:50:54.689Z,4.37
2018-11-27T01:53:21.520Z,3.70
2018-11-27T01:55:48.352Z,6.27
2018-11-27T01:58:15.171Z,4.73
2018-11-27T02:00:42.007Z,4.73
2018-11-27T02:03:09.028Z,5.40
2018-11-27T02:05:35.853Z,4.70
2018-11-27T02:08:02.663Z,4.17
2018-11-27T02:10:29.486Z,4.27
2018-11-27T02:13:00.952Z,4.80
2018-11-27T02:15:23.228Z,4.57
2018-11-27T02:17:50.066Z,4.53
2018-11-27T02:20:16.900Z,4.37
2018-11-27T02:22:43.767Z,6.03
2018-11-27T02:25:10.582Z,4.50
2018-11-27T02:27:37.421Z,4.47
2018-11-27T02:30:04.249Z,4.50
2018-11-27T02:32:31.137Z,4.43
2018-11-27T02:34:57.973Z,4.40
2018-11-27T02:37:24.807Z,4.80
2018-11-27T02:39:51.652Z,4.30
2018-11-27T02:42:18.553Z,4.17
2018-11-27T02:44:45.370Z,4.97
2018-11-27T02:47:13.009Z,4.60
2018-11-27T02:49:39.284Z,4.90
2018-11-27T02:52:06.303Z,4.40
2018-11-27T02:54:33.121Z,5.80
2018-11-27T02:56:59.940Z,4.03
2018-11-27T02:59:26.806Z,5.60
2018-11-27T03:01:53.654Z,5.00
2018-11-27T03:04:20.477Z,4.00
2018-11-27T03:06:47.308Z,4.80
2018-11-27T03:09:14.139Z,5.90
2018-11-27T03:11:41.047Z,4.27
2018-11-27T03:14:07.860Z,4.97
2018-11-27T03:16:34.696Z,4.27
2018-11-27T03:19:01.520Z,5.30
2018-11-27T03:21:28.419Z,5.10
2018-11-27T03:23:55.247Z,5.60
2018-11-27T03:26:22.069Z,5.77
2018-11-27T03:28:48.916Z,4.27
2018-11-27T03:31:15.784Z,5.23
2018-11-27T03:33:42.640Z,6.83
2018-11-27T03:36:09.460Z,4.43
2018-11-27T03:38:36.299Z,6.60
2018-11-27T03:41:03.120Z,4.17
2018-11-27T03:43:29.956Z,5.67
2018-11-27T03:45:56.790Z,5.17
2018-11-27T03:48:23.621Z,8.07
2018-11-27T03:50:50.455Z,5.23
2018-11-27T03:53:17.370Z,4.77
2018-11-27T03:55:44.218Z,6.43
2018-11-27T03:58:11.066Z,6.97
2018-11-27T04:00:37.893Z,6.03
2018-11-27T04:03:04.737Z,6.13
2018-11-27T04:05:31.579Z,5.80
2018-11-27T04:07:58.437Z,6.33
2018-11-27T04:10:25.255Z,5.87
2018-11-27T04:12:52.112Z,5.93
2018-11-27T04:15:18.960Z,6.53
2018-11-27T04:17:45.777Z,8.70
2018-11-27T04:20:12.622Z,7.27
2018-11-27T04:22:39.535Z,10.53
2018-11-27T04:25:06.377Z,8.73
2018-11-27T04:27:33.218Z,13.13
2018-11-27T04:30:00.053Z,10.73
2018-11-27T04:32:27.072Z,11.87
2018-11-27T04:34:53.897Z,13.87
2018-11-27T04:37:20.724Z,14.97
2018-11-27T04:39:47.560Z,14.07
2018-11-27T04:42:14.646Z,11.97
2018-11-27T04:44:41.476Z,20.20
2018-11-27T04:47:08.467Z,15.77
2018-11-27T04:49:35.332Z,14.47
2018-11-27T04:52:02.222Z,12.83
2018-11-27T04:54:29.049Z,14.97
2018-11-27T04:56:55.956Z,13.30
2018-11-27T04:59:22.786Z,16.90
2018-11-27T05:01:49.798Z,14.23
2018-11-27T05:04:16.628Z,17.63
2018-11-27T05:06:43.465Z,16.87
2018-11-27T05:09:10.304Z,16.37
2018-11-27T05:11:37.155Z,16.57
2018-11-27T05:14:03.981Z,13.70
2018-11-27T05:16:30.809Z,17.47
2018-11-27T05:18:57.636Z,13.47
2018-11-27T05:21:24.524Z,18.30
2018-11-27T05:23:51.378Z,12.30
2018-11-27T05:26:18.201Z,10.40
2018-11-27T05:28:45.058Z,13.20
2018-11-27T05:31:11.886Z,20.20
2018-11-27T05:33:38.721Z,18.53
2018-11-27T05:36:05.555Z,10.17
2018-11-27T05:38:32.388Z,15.87
2018-11-27T05:40:59.212Z,10.40
2018-11-27T05:43:26.050Z,22.60
2018-11-27T05:45:52.912Z,12.70
2018-11-27T05:48:19.727Z,14.70
2018-11-27T05:50:46.586Z,12.30
2018-11-27T05:53:13.523Z,10.50
2018-11-27T05:55:40.363Z,13.87
2018-11-27T05:58:07.192Z,12.50
2018-11-27T06:00:34.028Z,10.80
2018-11-27T06:03:01.082Z,10.37
2018-11-27T06:05:27.922Z,8.13
2018-11-27T06:07:54.747Z,13.93
2018-11-27T06:10:21.585Z,12.63
2018-11-27T06:12:48.465Z,9.50
2018-11-27T06:15:15.298Z,11.27
2018-11-27T06:17:42.138Z,10.90
2018-11-27T06:20:09.768Z,10.30
2018-11-27T06:22:37.670Z,11.17
2018-11-27T06:25:04.492Z,12.73
2018-11-27T06:27:31.328Z,13.03
2018-11-27T06:29:58.169Z,8.60
2018-11-27T06:32:25.049Z,11.90
2018-11-27T06:34:51.885Z,11.93
2018-11-27T06:37:18.684Z,9.43
2018-11-27T06:39:45.543Z,10.83
2018-11-27T06:42:12.425Z,7.23
2018-11-27T06:44:39.255Z,9.37
2018-11-27T06:47:06.065Z,10.43
2018-11-27T06:49:32.889Z,10.83
2018-11-27T06:51:59.771Z,10.53
2018-11-27T06:54:26.593Z,10.63
2018-11-27T06:56:53.439Z,12.90
2018-11-27T06:59:20.278Z,8.80
2018-11-27T07:01:47.142Z,12.60
2018-11-27T07:04:13.971Z,11.80
2018-11-27T07:06:40.834Z,10.10
2018-11-27T07:09:07.640Z,8.63
2018-11-27T07:11:34.509Z,11.70
2018-11-27T07:14:01.354Z,9.20
2018-11-27T07:16:28.171Z,12.23
2018-11-27T07:18:55.018Z,10.60
2018-11-27T07:21:21.901Z,11.30
2018-11-27T07:23:48.736Z,14.30
2018-11-27T07:26:15.567Z,9.77
2018-11-27T07:28:42.396Z,11.17
2018-11-27T07:31:09.230Z,10.07
2018-11-27T07:33:36.071Z,13.70
2018-11-27T07:36:02.929Z,10.93
2018-11-27T07:38:29.781Z,9.57
2018-11-27T07:40:56.607Z,9.20
2018-11-27T07:43:23.442Z,10.57
2018-11-27T07:45:55.093Z,11.00
2018-11-27T07:48:17.103Z,15.67
2018-11-27T07:50:43.942Z,10.43
2018-11-27T07:53:11.247Z,12.13
2018-11-27T07:55:38.081Z,11.00
2018-11-27T07:58:04.909Z,11.10
2018-11-27T08:00:31.736Z,8.53
2018-11-27T08:02:58.641Z,9.33
2018-11-27T08:05:25.468Z,11.80
2018-11-27T08:07:52.298Z,10.33
2018-11-27T08:10:19.150Z,11.13
2018-11-27T08:12:47.371Z,10.40
2018-11-27T08:15:14.218Z,8.67
2018-11-27T08:17:41.058Z,9.83
2018-11-27T08:20:08.490Z,10.00
2018-11-27T08:22:35.425Z,9.70
2018-11-27T08:25:02.265Z,10.90
2018-11-27T08:27:29.095Z,9.73
2018-11-27T08:29:55.929Z,8.73
2018-11-27T08:32:23.011Z,17.67
2018-11-27T08:34:49.829Z,10.40
2018-11-27T08:37:16.659Z,8.63
2018-11-27T08:39:43.492Z,7.80
2018-11-27T08:42:10.368Z,9.97
2018-11-27T08:44:37.178Z,9.80
2018-11-27T08:47:04.011Z,11.37
2018-11-27T08:49:30.884Z,9.47
2018-11-27T08:51:57.723Z,11.13
2018-11-27T08:54:24.589Z,9.47
2018-11-27T08:56:51.381Z,8.03
2018-11-27T08:59:18.210Z,8.57
2018-11-27T09:01:45.114Z,8.80
2018-11-27T09:04:11.944Z,8.10
2018-11-27T09:06:38.801Z,8.87
2018-11-27T09:09:05.645Z,10.00
2018-11-27T09:11:32.678Z,8.00
2018-11-27T09:13:59.531Z,10.23
2018-11-27T09:16:26.368Z,7.17
2018-11-27T09:18:53.192Z,9.00
2018-11-27T09:21:20.045Z,8.97
2018-11-27T09:23:46.865Z,8.70
2018-11-27T09:26:13.737Z,9.63
2018-11-27T09:28:40.563Z,9.10
2018-11-27T09:31:07.393Z,7.67
2018-11-27T09:33:34.228Z,9.13
2018-11-27T09:36:01.049Z,5.93
2018-11-27T09:38:27.876Z,6.80
2018-11-27T09:40:54.703Z,7.63
2018-11-27T09:43:21.533Z,8.80
2018-11-27T09:45:49.293Z,7.87
2018-11-27T09:48:16.108Z,8.37
2018-11-27T09:50:42.923Z,10.37
2018-11-27T09:53:09.839Z,5.70
2018-11-27T09:55:36.659Z,6.97
2018-11-27T09:58:03.501Z,7.30
2018-11-27T10:00:30.320Z,6.63
2018-11-27T10:02:57.212Z,8.30
2018-11-27T10:05:24.038Z,6.23
2018-11-27T10:07:51.152Z,7.97
2018-11-27T10:10:17.975Z,6.73
2018-11-27T10:12:45.003Z,8.63
2018-11-27T10:15:11.822Z,6.97
2018-11-27T10:17:38.652Z,5.40
2018-11-27T10:20:05.490Z,10.50
2018-11-27T10:22:32.348Z,5.80
2018-11-27T10:24:59.175Z,7.13
2018-11-27T10:27:26.022Z,5.50
2018-11-27T10:29:52.850Z,6.83
2018-11-27T10:32:20.570Z,5.63
2018-11-27T10:34:47.382Z,6.07
2018-11-27T10:37:14.232Z,9.33
2018-11-27T10:39:41.065Z,6.03
2018-11-27T10:42:07.927Z,8.80
2018-11-27T10:44:34.759Z,5.03
2018-11-27T10:47:01.582Z,6.40
2018-11-27T10:49:28.418Z,5.97
2018-11-27T10:51:55.292Z,5.70
2018-11-27T10:54:22.118Z,5.37
2018-11-27T10:56:48.949Z,5.83
2018-11-27T10:59:15.764Z,6.47
2018-11-27T11:01:42.659Z,6.90
2018-11-27T11:04:09.496Z,5.97
2018-11-27T11:06:36.320Z,6.23
2018-11-27T11:09:03.152Z,6.20
2018-11-27T11:11:30.035Z,5.53
2018-11-27T11:13:56.864Z,4.63
2018-11-27T11:16:23.936Z,4.53
2018-11-27T11:18:50.847Z,12.13
2018-11-27T11:21:17.806Z,9.73
2018-11-27T11:23:45.583Z,6.67
2018-11-27T11:26:12.400Z,7.33
2018-11-27T11:28:39.226Z,6.50
2018-11-27T11:31:06.693Z,7.50
2018-11-27T11:33:32.897Z,7.03
2018-11-27T11:35:59.740Z,6.00
2018-11-27T11:38:26.571Z,5.53
2018-11-27T11:40:53.409Z,6.60
2018-11-27T11:43:20.237Z,6.23
2018-11-27T11:45:47.066Z,7.77
2018-11-27T11:48:13.891Z,7.93
2018-11-27T11:50:40.777Z,9.43
2018-11-27T11:53:07.589Z,10.07
2018-11-27T11:55:34.424Z,7.10
2018-11-27T11:58:01.271Z,7.50
2018-11-27T12:00:28.097Z,11.30
2018-11-27T12:02:54.953Z,8.60
2018-11-27T12:05:25.047Z,5.43
2018-11-27T12:07:48.643Z,10.73
2018-11-27T12:10:15.466Z,5.47
2018-11-27T12:12:42.429Z,7.97
2018-11-27T12:15:09.257Z,12.70
2018-11-27T12:17:36.104Z,7.53
2018-11-27T12:20:02.934Z,8.00
2018-11-27T12:22:29.795Z,4.63
2018-11-27T12:24:56.644Z,8.80
2018-11-27T12:27:23.538Z,5.10
2018-11-27T12:29:50.386Z,12.83
2018-11-27T12:32:18.314Z,6.53
2018-11-27T12:34:45.193Z,5.47
2018-11-27T12:37:12.034Z,5.50
2018-11-27T12:39:38.930Z,5.30
2018-11-27T12:42:05.898Z,5.30
2018-11-27T12:44:32.720Z,5.43
2018-11-27T12:46:59.692Z,7.33
2018-11-27T12:49:27.443Z,5.20
2018-11-27T12:51:54.431Z,6.00
2018-11-27T12:54:21.261Z,4.47
2018-11-27T12:56:48.088Z,8.83
2018-11-27T12:59:14.946Z,6.70
2018-11-27T13:01:41.976Z,5.03
2018-11-27T13:04:08.810Z,5.80
2018-11-27T13:06:35.727Z,5.83
2018-11-27T13:09:02.786Z,8.43
2018-11-27T13:11:29.786Z,5.50
2018-11-27T13:13:56.782Z,6.47
2018-11-27T13:16:23.671Z,4.87
2018-11-27T13:18:50.501Z,7.20
2018-11-27T13:21:17.729Z,4.33
2018-11-27T13:23:44.753Z,6.37
2018-11-27T13:26:11.577Z,5.07
2018-11-27T13:28:38.459Z,4.90
2018-11-27T13:31:05.286Z,5.83
2018-11-27T13:33:32.126Z,11.00
2018-11-27T13:35:59.021Z,7.53
2018-11-27T13:38:26.251Z,6.07
2018-11-27T13:40:52.814Z,5.63
2018-11-27T13:43:19.727Z,9.33
2018-11-27T13:45:46.535Z,7.13
2018-11-27T13:48:13.405Z,6.67
2018-11-27T13:50:40.210Z,7.63
2018-11-27T13:53:07.222Z,6.27
2018-11-27T13:55:34.063Z,5.03
2018-11-27T13:58:00.926Z,5.90
2018-11-27T14:00:27.838Z,4.80
2018-11-27T14:02:54.679Z,10.80
2018-11-27T14:05:21.752Z,5.30
2018-11-27T14:07:48.596Z,4.63
2018-11-27T14:10:15.402Z,7.20
2018-11-27T14:12:42.297Z,7.63
2018-11-27T14:15:09.138Z,5.90
2018-11-27T14:17:36.034Z,5.23
2018-11-27T14:20:02.864Z,5.93
2018-11-27T14:22:29.908Z,5.67
2018-11-27T14:24:56.739Z,6.63
2018-11-27T14:27:23.631Z,6.43
2018-11-27T14:29:50.546Z,7.97
2018-11-27T14:32:18.826Z,6.77
2018-11-27T14:34:45.637Z,5.67
2018-11-27T14:37:12.745Z,5.70
2018-11-27T14:39:39.551Z,5.53
2018-11-27T14:42:06.629Z,16.53
2018-11-27T14:44:33.498Z,5.83
2018-11-27T14:47:00.334Z,6.33
2018-11-27T14:49:27.173Z,6.03
2018-11-27T14:51:54.189Z,10.87
2018-11-27T14:54:21.021Z,13.63
2018-11-27T14:56:47.901Z,12.00
2018-11-27T14:59:14.705Z,5.53
2018-11-27T15:01:41.552Z,10.67
2018-11-27T15:04:08.382Z,8.50
2018-11-27T15:06:35.233Z,9.93
2018-11-27T15:09:02.078Z,6.17
2018-11-27T15:11:28.926Z,8.00
2018-11-27T15:13:55.758Z,7.73
2018-11-27T15:16:22.617Z,7.07
2018-11-27T15:18:49.418Z,8.90
2018-11-27T15:21:16.307Z,7.87
2018-11-27T15:23:43.140Z,4.30
2018-11-27T15:26:09.993Z,6.00
2018-11-27T15:28:36.820Z,6.37
2018-11-27T15:31:03.656Z,8.00
2018-11-27T15:33:30.488Z,5.00
2018-11-27T15:35:57.330Z,6.27
2018-11-27T15:38:24.178Z,7.70
2018-11-27T15:40:51.041Z,6.30
2018-11-27T15:43:17.865Z,5.27
2018-11-27T15:45:44.695Z,6.60
2018-11-27T15:48:11.558Z,6.73
2018-11-27T15:50:38.396Z,6.50
2018-11-27T15:53:05.254Z,6.87
2018-11-27T15:55:32.098Z,8.20
2018-11-27T15:57:58.970Z,6.73
2018-11-27T16:00:25.814Z,7.63
2018-11-27T16:02:52.829Z,8.57
2018-11-27T16:05:19.657Z,6.30
2018-11-27T16:07:46.484Z,9.37
2018-11-27T16:10:13.327Z,8.67
2018-11-27T16:12:40.210Z,12.07
2018-11-27T16:15:07.032Z,8.70
2018-11-27T16:17:33.921Z,8.73
2018-11-27T16:20:00.699Z,8.37
2018-11-27T16:22:27.576Z,9.80
2018-11-27T16:24:54.410Z,7.73
2018-11-27T16:27:21.246Z,7.67
2018-11-27T16:29:48.076Z,6.70
2018-11-27T16:32:15.288Z,6.63
2018-11-27T16:34:42.115Z,7.70
2018-11-27T16:37:09.037Z,7.33
2018-11-27T16:39:35.866Z,6.93
2018-11-27T16:42:02.726Z,6.10
2018-11-27T16:44:29.544Z,6.50
2018-11-27T16:46:56.363Z,8.70
2018-11-27T16:49:23.196Z,7.27
2018-11-27T16:51:50.093Z,11.20
2018-11-27T16:54:16.917Z,9.07
2018-11-27T16:56:43.744Z,8.50
2018-11-27T16:59:10.581Z,11.40
2018-11-27T17:01:37.474Z,12.67
2018-11-27T17:04:04.365Z,17.03
2018-11-27T17:06:31.208Z,13.73
2018-11-27T17:08:58.029Z,12.20
2018-11-27T17:11:25.045Z,16.33
2018-11-27T17:13:51.880Z,15.47
2018-11-27T17:16:18.717Z,12.90
2018-11-27T17:18:45.556Z,15.27
2018-11-27T17:21:12.419Z,11.90
2018-11-27T17:23:39.256Z,12.20
2018-11-27T17:26:06.099Z,9.87
2018-11-27T17:28:32.926Z,10.63
2018-11-27T17:30:59.765Z,14.60
2018-11-27T17:33:26.610Z,9.60
2018-11-27T17:35:53.445Z,12.83
2018-11-27T17:38:20.289Z,12.50
2018-11-27T17:40:47.128Z,9.13
2018-11-27T17:43:13.965Z,10.17
2018-11-27T17:45:40.812Z,10.30
2018-11-27T17:48:07.644Z,9.40
2018-11-27T17:50:34.488Z,12.07
2018-11-27T17:53:01.380Z,11.13
2018-11-27T17:55:28.193Z,8.77
2018-11-27T17:57:55.027Z,12.93
2018-11-27T18:00:21.904Z,7.80
2018-11-27T18:02:48.758Z,11.80
2018-11-27T18:05:16.205Z,9.00
2018-11-27T18:07:43.020Z,7.70
2018-11-27T18:10:10.990Z,17.13
2018-11-27T18:15:16.953Z,12.60
2018-11-27T18:17:43.781Z,12.90
2018-11-27T18:20:10.633Z,12.57
2018-11-27T18:22:37.621Z,8.17
2018-11-27T18:25:04.461Z,9.73
2018-11-27T18:27:31.290Z,11.40
2018-11-27T18:29:58.131Z,17.87
2018-11-27T18:32:25.638Z,15.70
2018-11-27T18:34:52.465Z,19.53
2018-11-27T18:37:19.289Z,16.73
2018-11-27T18:39:46.119Z,14.77
2018-11-27T18:42:12.976Z,16.63
2018-11-27T18:44:39.800Z,17.63
2018-11-27T18:47:06.652Z,19.13
2018-11-27T18:49:33.484Z,13.13
2018-11-27T18:52:00.351Z,14.57
2018-11-27T18:54:27.176Z,10.10
2018-11-27T18:56:54.012Z,15.10
2018-11-27T18:59:20.846Z,12.33
2018-11-27T19:01:47.725Z,10.73
2018-11-27T19:04:14.915Z,14.57
2018-11-27T19:06:41.821Z,10.93
2018-11-27T19:09:08.760Z,12.93
2018-11-27T19:11:35.881Z,15.17
2018-11-27T19:14:02.798Z,9.33
2018-11-27T19:16:29.737Z,12.13
2018-11-27T19:18:56.567Z,14.20
2018-11-27T19:21:23.539Z,13.00
2018-11-27T19:23:50.543Z,12.63
2018-11-27T19:26:17.386Z,12.23
2018-11-27T19:28:44.261Z,9.73
2018-11-27T19:31:11.450Z,9.50
2018-11-27T19:33:38.289Z,10.60
2018-11-27T19:36:05.404Z,12.53
2018-11-27T19:38:32.276Z,14.13
2018-11-27T19:40:59.156Z,8.70
2018-11-27T19:43:26.203Z,9.13
2018-11-27T19:45:53.047Z,9.90
2018-11-27T19:48:20.081Z,9.10
2018-11-27T19:50:46.914Z,8.10
2018-11-27T19:53:13.779Z,8.67
2018-11-27T19:55:40.995Z,9.83
2018-11-27T19:58:09.822Z,12.57
2018-11-27T20:00:36.663Z,10.20
2018-11-27T20:03:03.536Z,9.60
2018-11-27T20:05:37.508Z,10.07
2018-11-27T20:08:04.470Z,8.90
2018-11-27T20:10:31.327Z,8.10
2018-11-27T20:12:58.589Z,8.50
2018-11-27T20:15:34.170Z,8.30
2018-11-27T20:18:01.113Z,8.73
2018-11-27T20:20:28.448Z,7.70
2018-11-27T20:22:55.458Z,9.37
2018-11-27T20:25:22.359Z,10.50
2018-11-27T20:30:22.266Z,8.90
2018-11-27T20:32:49.177Z,7.53
2018-11-27T20:35:16.034Z,8.47
2018-11-27T20:37:43.057Z,9.77
2018-11-27T20:40:09.919Z,7.47
2018-11-27T20:42:36.819Z,12.30
2018-11-27T20:45:04.571Z,8.00
2018-11-27T20:47:32.124Z,8.80
2018-11-27T20:49:58.971Z,8.07
2018-11-27T20:52:25.969Z,6.57
2018-11-27T20:54:52.825Z,6.13
2018-11-27T20:57:19.668Z,6.07
2018-11-27T20:59:46.552Z,9.90
2018-11-27T21:02:13.566Z,6.93
2018-11-27T21:04:40.438Z,8.17
2018-11-27T21:07:07.428Z,12.60
2018-11-27T21:09:34.364Z,8.93
2018-11-27T21:12:01.492Z,8.93
2018-11-27T21:14:28.387Z,7.30
2018-11-27T21:16:55.266Z,9.30
2018-11-27T21:19:22.089Z,7.60
2018-11-27T21:21:49.330Z,7.60
2018-11-27T21:24:17.390Z,6.87
2018-11-27T21:26:44.269Z,6.87
2018-11-27T21:29:11.108Z,8.07
2018-11-27T21:31:38.137Z,8.17
2018-11-27T21:34:04.959Z,6.03
2018-11-27T21:36:31.838Z,8.90
2018-11-27T21:38:58.686Z,6.60
2018-11-27T21:41:25.697Z,7.50
2018-11-27T21:43:52.550Z,11.97
2018-11-27T21:46:19.382Z,6.30
2018-11-27T21:48:46.253Z,6.00
2018-11-27T21:51:16.388Z,5.83
2018-11-27T21:53:43.359Z,6.77
2018-11-27T21:56:10.209Z,6.03
2018-11-27T21:58:37.037Z,9.37
2018-11-27T22:01:03.872Z,6.77
2018-11-27T22:03:30.719Z,6.03
2018-11-27T22:05:57.556Z,7.00
2018-11-27T22:08:24.433Z,6.20
2018-11-27T22:10:51.259Z,5.30
2018-11-27T22:13:18.090Z,5.93
2018-11-27T22:15:44.973Z,6.87
2018-11-27T22:18:11.773Z,5.43
2018-11-27T22:20:38.632Z,6.20
2018-11-27T22:23:05.498Z,6.00
2018-11-27T22:25:33.189Z,7.77
2018-11-27T22:28:00.068Z,7.50
2018-11-27T22:30:26.935Z,6.77
2018-11-27T22:32:53.988Z,6.57
2018-11-27T22:35:21.303Z,5.33
2018-11-27T22:37:48.190Z,6.90
2018-11-27T22:40:15.079Z,6.33
2018-11-27T22:42:42.097Z,6.13
2018-11-27T22:45:08.918Z,5.50
2018-11-27T22:47:35.750Z,6.57
2018-11-27T22:50:02.597Z,5.67
2018-11-27T22:52:29.459Z,5.20
2018-11-27T22:54:56.294Z,5.77
2018-11-27T22:57:24.171Z,6.20
2018-11-27T22:59:50.980Z,7.00
2018-11-27T23:02:17.865Z,6.20
2018-11-27T23:04:44.953Z,5.10
2018-11-27T23:07:11.789Z,5.70
2018-11-27T23:09:38.732Z,5.50
2018-11-27T23:12:05.636Z,6.90
2018-11-27T23:14:32.487Z,6.47
2018-11-27T23:16:59.369Z,7.60
2018-11-27T23:19:26.224Z,6.23
2018-11-27T23:21:53.209Z,6.07
2018-11-27T23:24:20.078Z,6.57
2018-11-27T23:26:46.898Z,6.10
2018-11-27T23:29:13.769Z,5.73
2018-11-27T23:31:40.794Z,5.43
2018-11-27T23:34:07.628Z,6.10
2018-11-27T23:36:34.497Z,4.90
2018-11-27T23:39:01.407Z,5.43
2018-11-27T23:41:28.380Z,6.03
2018-11-27T23:43:55.253Z,4.63
2018-11-27T23:46:23.516Z,4.70
2018-11-27T23:48:50.386Z,4.97
2018-11-27T23:51:17.414Z,5.07
2018-11-27T23:53:44.252Z,6.40
2018-11-27T23:56:11.136Z,6.47
2018-11-27T23:58:37.957Z,5.93
